createdAt,value
2023-03-11T00:02:20.561Z,0
2023-03-11T00:22:23.397Z,0
2023-03-11T00:32:25.209Z,0
2023-03-11T00:42:26.695Z,-0.1
2023-03-11T00:52:28.279Z,-0.1
2023-03-11T01:02:29.553Z,-0.1
2023-03-11T01:12:31.304Z,-0.1
2023-03-11T01:22:32.802Z,-0.1
2023-03-11T01:32:34.803Z,-0.1
2023-03-11T01:42:36.206Z,-0.1
2023-03-11T01:52:37.492Z,-0.1
2023-03-11T02:02:38.699Z,-0.1
2023-03-11T02:12:39.841Z,-0.1
2023-03-11T02:22:41.032Z,-0.1
2023-03-11T02:32:42.591Z,-0.1
2023-03-11T02:42:43.650Z,-0.2
2023-03-11T02:52:45.271Z,-0.3
2023-03-11T03:12:49.029Z,-0.2
2023-03-11T03:22:50.946Z,-0.2
2023-03-11T03:32:52.387Z,-0.2
2023-03-11T03:42:54.137Z,-0.1
2023-03-11T03:52:55.462Z,-0.1
2023-03-11T04:02:56.744Z,-0.1
2023-03-11T04:22:59.271Z,-0.2
2023-03-11T04:33:00.412Z,-0.2
2023-03-11T04:43:01.519Z,-0.3
2023-03-11T04:53:03.433Z,-0.3
2023-03-11T05:03:05.223Z,-0.3
2023-03-11T05:13:06.656Z,-0.3
2023-03-11T05:23:07.660Z,-0.3
2023-03-11T05:33:09.075Z,-0.4
2023-03-11T05:43:11.062Z,-0.4
2023-03-11T05:53:13.025Z,-0.5
2023-03-11T06:03:14.782Z,-0.6
2023-03-11T06:13:16.209Z,-0.6
2023-03-11T06:23:17.308Z,-0.7
2023-03-11T06:33:18.870Z,-0.7
2023-03-11T06:43:20.114Z,-0.6
2023-03-11T06:53:21.211Z,-0.4
2023-03-11T07:03:22.672Z,-0.4
2023-03-11T07:13:23.913Z,-0.2
2023-03-11T07:23:25.332Z,0.2
2023-03-11T07:33:27.002Z,0.5
2023-03-11T07:43:28.654Z,1.1
2023-03-11T07:53:29.743Z,0.8
2023-03-11T08:03:31.196Z,1.2
2023-03-11T08:13:33.065Z,1.5
2023-03-11T08:23:34.733Z,1.7
2023-03-11T08:33:35.979Z,1.7
2023-03-11T08:43:37.027Z,2.2
2023-03-11T08:53:38.211Z,2.3
2023-03-11T09:03:39.575Z,2.2
2023-03-11T09:13:41.564Z,2.5
2023-03-11T09:23:44.432Z,2.6
2023-03-11T09:33:44.732Z,2.8
2023-03-11T09:43:45.882Z,3
2023-03-11T09:53:47.457Z,3
2023-03-11T10:03:49.383Z,3.3
2023-03-11T10:13:51.014Z,3.3
2023-03-11T10:23:52.240Z,3.4
2023-03-11T10:33:53.502Z,3.4
2023-03-11T10:43:54.835Z,3.5
2023-03-11T10:53:56.016Z,3.2
2023-03-11T11:03:57.226Z,3.4
2023-03-11T11:13:58.406Z,4
2023-03-11T11:24:00.208Z,4
2023-03-11T11:34:01.997Z,4.1
2023-03-11T11:44:03.420Z,4.5
2023-03-11T11:54:05.148Z,4.6
2023-03-11T12:04:06.230Z,4.1
2023-03-11T12:14:08.140Z,4.2
2023-03-11T12:24:09.448Z,4.5
2023-03-11T12:34:10.678Z,4.5
2023-03-11T12:44:12.072Z,3.9
2023-03-11T12:54:13.232Z,4.9
2023-03-11T13:04:14.345Z,5.4
2023-03-11T13:14:16.069Z,5.4
2023-03-11T13:24:17.647Z,5.5
2023-03-11T13:34:19.602Z,6
2023-03-11T13:44:20.828Z,5.8
2023-03-11T13:54:24.452Z,5.4
2023-03-11T14:04:23.977Z,5.2
2023-03-11T14:14:25.873Z,5.3
2023-03-11T14:24:26.968Z,6.3
2023-03-11T14:34:28.837Z,7.2
2023-03-11T14:44:30.096Z,6.6
2023-03-11T14:47:08.475Z,6.6
2023-03-11T14:54:40.085Z,7.3
2023-03-11T15:04:41.836Z,6.8
2023-03-11T15:14:43.599Z,7.7
2023-03-11T15:24:44.651Z,6.2
2023-03-11T15:34:45.914Z,6.1
2023-03-11T15:54:55.680Z,5.4
2023-03-11T16:04:51.309Z,5.5
2023-03-11T16:14:52.437Z,5.2
2023-03-11T16:24:53.546Z,5.1
2023-03-11T16:34:55.173Z,4.8
2023-03-11T16:44:56.322Z,4.6
2023-03-11T16:54:57.891Z,4.4
2023-03-11T17:04:59.385Z,4.4
2023-03-11T17:15:00.830Z,4.1
2023-03-11T17:25:02.411Z,3.9
2023-03-11T17:35:03.847Z,3.6
2023-03-11T17:45:05.200Z,3.4
2023-03-11T17:55:06.363Z,3.1
2023-03-11T18:05:08.008Z,2.9
2023-03-11T18:15:09.906Z,2.7
2023-03-11T18:25:11.534Z,2.3
2023-03-11T18:35:12.651Z,2
2023-03-11T18:45:14.432Z,1.8
2023-03-11T18:55:16.431Z,1.4
2023-03-11T19:05:18.001Z,1.1
2023-03-11T19:15:19.748Z,0.9
2023-03-11T19:25:21.189Z,0.7
2023-03-11T19:35:22.414Z,0.7
2023-03-11T19:45:24.062Z,0.5
2023-03-11T19:55:25.607Z,0.2
2023-03-11T20:05:27.089Z,0
2023-03-11T20:15:28.177Z,0.1
2023-03-11T20:25:30.114Z,0.1
2023-03-11T20:35:31.404Z,0.3
2023-03-11T21:25:39.208Z,0.3
2023-03-11T21:35:40.321Z,0.3
2023-03-11T21:45:41.912Z,0.1
2023-03-11T21:55:43.636Z,-0.1
2023-03-11T22:05:45.144Z,-0.1
2023-03-11T22:15:46.895Z,-0.3
2023-03-11T22:25:47.859Z,-0.4
2023-03-11T22:35:49.278Z,-0.4
2023-03-11T22:45:50.661Z,-0.3
2023-03-11T22:55:52.348Z,-0.1
2023-03-11T23:05:54.257Z,0
2023-03-11T23:15:55.392Z,0
2023-03-11T23:25:57.106Z,0.1
2023-03-11T23:35:58.330Z,0.2
2023-03-11T23:56:01.324Z,0.4
